Time;durP1;ratioP1;P1;durP2;ratioP2;P2;SDS_P1;SDS_P2;PMS_P1;PMS_P2;Temp;Humidity;BMP_temperature;BMP_pressure;BME280_temperature;BME280_humidity;BME280_pressure;Samples;Min_cycle;Max_cycle;Signal;HPM_P1;HPM_P2
2023/03/13 00:01:53;;;;;;;10.47;1.70;;;;;;;;;;6188912;23;20190;-64
2023/03/13 00:04:20;;;;;;;13.68;2.47;;;;;;;;;;6157744;23;20025;-66
2023/03/13 00:06:46;;;;;;;8.55;2.47;;;;;;;;;;6157109;23;20072;-63
2023/03/13 00:09:14;;;;;;;12.80;2.58;;;;;;;;;;6154408;23;20033;-65
2023/03/13 00:11:41;;;;;;;6.72;2.15;;;;;;;;;;6147083;23;20095;-64
2023/03/13 00:14:07;;;;;;;12.88;2.33;;;;;;;;;;6104607;23;20165;-66
2023/03/13 00:16:36;;;;;;;7.95;2.20;;;;;;;;;;6134959;23;20055;-65
2023/03/13 00:19:03;;;;;;;9.82;1.75;;;;;;;;;;6149220;23;20158;-66
2023/03/13 00:21:29;;;;;;;8.70;1.90;;;;;;;;;;6147916;23;20180;-65
2023/03/13 00:23:56;;;;;;;13.77;2.70;;;;;;;;;;6113603;23;20021;-66
2023/03/13 00:26:23;;;;;;;7.60;2.13;;;;;;;;;;6140194;23;20056;-66
2023/03/13 00:28:50;;;;;;;10.98;2.15;;;;;;;;;;6099574;23;20060;-65
2023/03/13 00:31:17;;;;;;;13.63;2.35;;;;;;;;;;6105932;23;20029;-65
2023/03/13 00:33:46;;;;;;;9.82;2.08;;;;;;;;;;6103995;23;20029;-67
2023/03/13 00:36:12;;;;;;;;;;;;;;;;;;6139796;23;20047;-65
2023/03/13 00:38:39;;;;;;;10.00;2.33;;;;;;;;;;6145294;23;19923;-66
2023/03/13 00:41:06;;;;;;;7.78;2.20;;;;;;;;;;6150015;23;20029;-67
2023/03/13 00:43:33;;;;;;;11.32;2.47;;;;;;;;;;6153103;23;20054;-68
2023/03/13 00:46:00;;;;;;;6.18;1.85;;;;;;;;;;6155780;23;20082;-67
2023/03/13 00:48:26;;;;;;;6.97;2.45;;;;;;;;;;6169620;23;20048;-65
2023/03/13 00:50:54;;;;;;;11.25;2.72;;;;;;;;;;6173392;23;20090;-65
2023/03/13 00:53:21;;;;;;;11.25;2.15;;;;;;;;;;6170201;23;21315;-66
2023/03/13 00:55:51;;;;;;;7.53;2.05;;;;;;;;;;6172592;23;20052;-67
2023/03/13 00:58:18;;;;;;;10.75;2.47;;;;;;;;;;6167534;23;20044;-67
2023/03/13 01:00:44;;;;;;;9.88;2.30;;;;;;;;;;6183419;23;20032;-64
2023/03/13 01:03:11;;;;;;;12.18;2.30;;;;;;;;;;6183380;23;20028;-65
2023/03/13 01:05:38;;;;;;;8.48;2.55;;;;;;;;;;6185732;23;20024;-65
2023/03/13 01:08:06;;;;;;;9.82;2.22;;;;;;;;;;6162004;23;20153;-66
2023/03/13 01:10:34;;;;;;;9.77;2.00;;;;;;;;;;6186687;23;20028;-65
2023/03/13 01:13:03;;;;;;;12.88;2.53;;;;;;;;;;6187796;23;20028;-68
2023/03/13 01:15:30;;;;;;;9.98;2.20;;;;;;;;;;6131205;23;20055;-66
2023/03/13 01:17:59;;;;;;;9.98;2.35;;;;;;;;;;6190972;23;20028;-66
2023/03/13 01:20:25;;;;;;;;;;;;;;;;;;6189273;23;20103;-67
2023/03/13 01:22:51;;;;;;;9.77;1.98;;;;;;;;;;6189445;23;19987;-67
2023/03/13 01:25:19;;;;;;;7.70;1.85;;;;;;;;;;6144868;23;20082;-67
2023/03/13 01:27:46;;;;;;;10.10;2.13;;;;;;;;;;6189107;23;20090;-67
2023/03/13 01:30:13;;;;;;;6.28;2.08;;;;;;;;;;6189396;23;20076;-69
2023/03/13 01:32:39;;;;;;;7.88;2.13;;;;;;;;;;6156311;23;20032;-66
2023/03/13 01:35:06;;;;;;;6.72;1.92;;;;;;;;;;6156991;23;20213;-68
2023/03/13 01:37:33;;;;;;;7.03;1.67;;;;;;;;;;6173560;23;20232;-68
2023/03/13 01:39:59;;;;;;;7.43;2.20;;;;;;;;;;6176987;23;20249;-69
2023/03/13 01:42:30;;;;;;;10.43;2.20;;;;;;;;;;6175057;23;20051;-71
2023/03/13 01:44:58;;;;;;;10.45;2.05;;;;;;;;;;6156523;23;20024;-69
2023/03/13 01:47:25;;;;;;;11.65;2.53;;;;;;;;;;6155784;23;20954;-70
2023/03/13 01:49:52;;;;;;;10.13;2.28;;;;;;;;;;6143625;23;20044;-67
2023/03/13 01:52:20;;;;;;;5.57;2.10;;;;;;;;;;6190971;23;20044;-65
2023/03/13 01:54:49;;;;;;;7.90;1.90;;;;;;;;;;6160882;23;20033;-66
2023/03/13 01:57:17;;;;;;;8.02;1.83;;;;;;;;;;6178410;23;20627;-65
2023/03/13 01:59:49;;;;;;;7.05;1.75;;;;;;;;;;6139598;23;20056;-68
2023/03/13 02:02:16;;;;;;;9.73;1.88;;;;;;;;;;6187573;23;20098;-67
2023/03/13 02:04:45;;;;;;;7.63;1.80;;;;;;;;;;6185297;23;20078;-70
2023/03/13 02:07:15;;;;;;;10.23;2.10;;;;;;;;;;6141317;23;20149;-65
2023/03/13 02:09:44;;;;;;;9.05;2.00;;;;;;;;;;6186517;23;20025;-69
2023/03/13 02:12:11;;;;;;;7.63;1.95;;;;;;;;;;6191686;23;20029;-64
2023/03/13 02:14:39;;;;;;;9.93;1.92;;;;;;;;;;6183964;23;20136;-68
2023/03/13 02:17:07;;;;;;;6.40;1.80;;;;;;;;;;6186413;23;20048;-67
2023/03/13 02:19:37;;;;;;;7.17;2.13;;;;;;;;;;6186739;23;20098;-65
2023/03/13 02:22:11;;;;;;;9.50;2.33;;;;;;;;;;6189052;23;20115;-65
2023/03/13 02:24:40;;;;;;;7.60;1.75;;;;;;;;;;6169641;23;20159;-67
2023/03/13 02:27:10;;;;;;;6.82;1.70;;;;;;;;;;6170167;23;20120;-68
2023/03/13 02:29:36;;;;;;;8.80;1.80;;;;;;;;;;6177822;23;20094;-69
2023/03/13 02:32:03;;;;;;;7.60;1.88;;;;;;;;;;6175016;23;20032;-69
2023/03/13 02:34:32;;;;;;;9.77;1.90;;;;;;;;;;6108408;23;20086;-67
2023/03/13 02:36:58;;;;;;;;;;;;;;;;;;6160055;23;20046;-64
2023/03/13 02:39:25;;;;;;;8.02;1.90;;;;;;;;;;6179598;23;20077;-68
2023/03/13 02:41:52;;;;;;;6.00;1.77;;;;;;;;;;6177910;23;20147;-65
2023/03/13 02:44:20;;;;;;;3.13;1.40;;;;;;;;;;6187844;23;20057;-69
2023/03/13 02:46:49;;;;;;;8.43;1.53;;;;;;;;;;6142696;23;20055;-65
2023/03/13 02:49:23;;;;;;;6.05;1.77;;;;;;;;;;6158394;23;20325;-70
2023/03/13 02:51:50;;;;;;;8.48;1.77;;;;;;;;;;6180187;23;20028;-66
2023/03/13 02:54:18;;;;;;;6.80;1.65;;;;;;;;;;6169647;23;20032;-67
2023/03/13 02:56:48;;;;;;;7.43;2.00;;;;;;;;;;6128928;23;20028;-65
2023/03/13 02:59:14;;;;;;;7.03;1.85;;;;;;;;;;6175998;23;20187;-67
2023/03/13 03:01:42;;;;;;;4.22;1.40;;;;;;;;;;6195028;23;20050;-69
2023/03/13 03:04:08;;;;;;;3.37;1.30;;;;;;;;;;6158787;23;20056;-66
2023/03/13 03:06:36;;;;;;;7.32;1.70;;;;;;;;;;6164194;23;20065;-67
2023/03/13 03:09:02;;;;;;;7.18;1.40;;;;;;;;;;6214514;23;20054;-65
2023/03/13 03:11:29;;;;;;;5.53;1.50;;;;;;;;;;6163736;23;20091;-66
2023/03/13 03:13:55;;;;;;;5.05;1.40;;;;;;;;;;6200972;23;20416;-66
2023/03/13 03:16:21;;;;;;;4.65;1.60;;;;;;;;;;6221980;23;20047;-68
2023/03/13 03:18:49;;;;;;;3.70;1.35;;;;;;;;;;6203855;23;20024;-66
2023/03/13 03:21:16;;;;;;;3.33;1.30;;;;;;;;;;6196481;23;20024;-68
2023/03/13 03:23:42;;;;;;;4.85;1.30;;;;;;;;;;6223728;23;20058;-68
2023/03/13 03:26:09;;;;;;;6.47;1.42;;;;;;;;;;6193799;23;20113;-66
2023/03/13 03:28:36;;;;;;;4.50;1.67;;;;;;;;;;6180865;23;20045;-69
2023/03/13 03:31:06;;;;;;;5.13;1.48;;;;;;;;;;6195258;23;20027;-69
2023/03/13 03:33:33;;;;;;;4.45;1.23;;;;;;;;;;6224360;23;20028;-66
2023/03/13 03:36:01;;;;;;;4.68;1.65;;;;;;;;;;6165004;23;20055;-67
2023/03/13 03:38:28;;;;;;;6.45;1.42;;;;;;;;;;6210020;23;20090;-68
2023/03/13 03:40:57;;;;;;;4.85;1.55;;;;;;;;;;6206698;23;20158;-66
2023/03/13 03:43:23;;;;;;;4.88;1.45;;;;;;;;;;6183165;23;20024;-68
2023/03/13 03:45:50;;;;;;;4.50;1.50;;;;;;;;;;6159801;23;20047;-68
2023/03/13 03:48:16;;;;;;;4.30;1.73;;;;;;;;;;6182737;23;20078;-66
2023/03/13 03:50:43;;;;;;;3.03;1.30;;;;;;;;;;6184317;23;20049;-65
2023/03/13 03:53:11;;;;;;;4.30;1.58;;;;;;;;;;6180343;23;20103;-67
2023/03/13 03:55:37;;;;;;;6.00;2.15;;;;;;;;;;6187657;23;20029;-65
2023/03/13 03:58:04;;;;;;;3.53;1.65;;;;;;;;;;6193857;23;20075;-67
2023/03/13 04:00:30;;;;;;;5.25;1.80;;;;;;;;;;6175154;23;20086;-68
2023/03/13 04:02:57;;;;;;;4.70;1.73;;;;;;;;;;6152266;23;20226;-67
2023/03/13 04:05:23;;;;;;;8.52;2.00;;;;;;;;;;6140685;23;20096;-67
2023/03/13 04:07:50;;;;;;;5.97;1.88;;;;;;;;;;6155529;23;20028;-65
2023/03/13 04:10:18;;;;;;;6.80;2.50;;;;;;;;;;6182993;23;20091;-67
2023/03/13 04:12:44;;;;;;;6.28;1.75;;;;;;;;;;6148765;23;20032;-66
2023/03/13 04:15:11;;;;;;;5.30;2.42;;;;;;;;;;6175115;23;20064;-67
2023/03/13 04:17:37;;;;;;;7.57;2.03;;;;;;;;;;6194256;23;20024;-67
2023/03/13 04:20:06;;;;;;;7.47;2.33;;;;;;;;;;6206189;23;20029;-68
2023/03/13 04:22:33;;;;;;;5.80;1.80;;;;;;;;;;6146206;23;20036;-65
2023/03/13 04:24:59;;;;;;;5.25;2.13;;;;;;;;;;6094219;23;20091;-68
2023/03/13 04:27:27;;;;;;;4.43;1.90;;;;;;;;;;6129558;23;20063;-66
2023/03/13 04:29:53;;;;;;;6.40;2.23;;;;;;;;;;6136270;23;20111;-66
2023/03/13 04:32:21;;;;;;;4.38;2.20;;;;;;;;;;6138936;23;20260;-68
2023/03/13 04:34:48;;;;;;;4.75;2.13;;;;;;;;;;6131655;23;20058;-68
2023/03/13 04:37:14;;;;;;;4.22;2.10;;;;;;;;;;6180398;23;20059;-65
2023/03/13 04:39:40;;;;;;;4.53;1.95;;;;;;;;;;6192253;23;20100;-68
2023/03/13 04:42:07;;;;;;;4.53;2.05;;;;;;;;;;6164239;23;20055;-65
2023/03/13 04:44:35;;;;;;;5.68;2.40;;;;;;;;;;6162307;23;20039;-68
2023/03/13 04:47:02;;;;;;;4.18;2.20;;;;;;;;;;6162834;23;20063;-68
2023/03/13 04:49:28;;;;;;;4.30;2.13;;;;;;;;;;6170849;23;20087;-68
2023/03/13 04:51:55;;;;;;;5.43;2.25;;;;;;;;;;6195838;23;20039;-68
2023/03/13 04:54:21;;;;;;;5.82;2.20;;;;;;;;;;6188374;23;20144;-67
2023/03/13 04:56:48;;;;;;;5.47;2.38;;;;;;;;;;6167863;23;20328;-67
2023/03/13 04:59:15;;;;;;;5.60;2.35;;;;;;;;;;6171939;23;20074;-67
2023/03/13 05:01:43;;;;;;;4.32;2.00;;;;;;;;;;6192074;23;20029;-68
2023/03/13 05:04:16;;;;;;;7.40;2.40;;;;;;;;;;6180720;23;20095;-68
2023/03/13 05:06:43;;;;;;;5.93;2.25;;;;;;;;;;6167361;23;20024;-65
2023/03/13 05:09:09;;;;;;;5.68;2.40;;;;;;;;;;6182667;23;20056;-66
2023/03/13 05:11:36;;;;;;;3.95;2.15;;;;;;;;;;6177159;23;20028;-68
2023/03/13 05:14:03;;;;;;;4.63;2.35;;;;;;;;;;6178667;23;20104;-67
2023/03/13 05:16:29;;;;;;;5.05;2.30;;;;;;;;;;6176512;23;20028;-70
2023/03/13 05:18:57;;;;;;;5.07;2.40;;;;;;;;;;6187531;23;20198;-65
2023/03/13 05:21:26;;;;;;;3.83;1.97;;;;;;;;;;6190557;23;20082;-66
2023/03/13 05:23:53;;;;;;;5.97;2.17;;;;;;;;;;6160185;23;20032;-67
2023/03/13 05:26:19;;;;;;;4.07;2.08;;;;;;;;;;6165082;23;20024;-68
2023/03/13 05:28:46;;;;;;;4.60;2.33;;;;;;;;;;6170484;23;20021;-66
2023/03/13 05:31:12;;;;;;;4.57;2.25;;;;;;;;;;6189965;23;20070;-67
2023/03/13 05:33:39;;;;;;;6.53;2.15;;;;;;;;;;6217505;23;20056;-64
2023/03/13 05:36:07;;;;;;;7.00;2.28;;;;;;;;;;6178655;23;20021;-69
2023/03/13 05:38:34;;;;;;;7.78;2.50;;;;;;;;;;6144851;23;20028;-68
2023/03/13 05:41:01;;;;;;;4.35;2.20;;;;;;;;;;6152915;23;20033;-68
2023/03/13 05:43:27;;;;;;;6.00;2.30;;;;;;;;;;6182972;23;20035;-65
2023/03/13 05:45:54;;;;;;;4.38;2.10;;;;;;;;;;6190807;23;20036;-65
2023/03/13 05:48:20;;;;;;;5.47;2.33;;;;;;;;;;6130636;23;20037;-67
2023/03/13 05:50:49;;;;;;;5.93;2.13;;;;;;;;;;6157837;23;20024;-68
2023/03/13 05:53:18;;;;;;;4.88;2.30;;;;;;;;;;6193009;23;20022;-66
2023/03/13 05:55:44;;;;;;;5.53;2.40;;;;;;;;;;6129962;23;20020;-65
2023/03/13 05:58:12;;;;;;;6.75;1.92;;;;;;;;;;6190938;23;20040;-68
2023/03/13 06:00:38;;;;;;;7.03;2.17;;;;;;;;;;6188670;23;20056;-67
2023/03/13 06:03:05;;;;;;;7.18;2.17;;;;;;;;;;6190650;23;20059;-67
2023/03/13 06:05:34;;;;;;;8.52;2.40;;;;;;;;;;6138392;23;20098;-66
2023/03/13 06:08:02;;;;;;;5.57;2.33;;;;;;;;;;6156714;23;20055;-66
2023/03/13 06:10:33;;;;;;;4.40;2.10;;;;;;;;;;6077136;23;20035;-64
2023/03/13 06:13:00;;;;;;;5.18;2.30;;;;;;;;;;6051182;23;20034;-66
2023/03/13 06:15:26;;;;;;;10.63;2.20;;;;;;;;;;6066462;23;20100;-67
2023/03/13 06:17:55;;;;;;;4.97;2.20;;;;;;;;;;6066904;23;20049;-66
2023/03/13 06:20:22;;;;;;;5.10;2.30;;;;;;;;;;6085608;23;20022;-64
2023/03/13 06:22:49;;;;;;;5.88;2.38;;;;;;;;;;6121181;23;20056;-64
2023/03/13 06:25:15;;;;;;;4.57;2.28;;;;;;;;;;6177047;23;20029;-66
2023/03/13 06:27:43;;;;;;;7.07;2.40;;;;;;;;;;6161164;23;20024;-67
2023/03/13 06:30:14;;;;;;;8.50;2.58;;;;;;;;;;6160623;23;20028;-65
2023/03/13 06:32:41;;;;;;;5.32;2.20;;;;;;;;;;6159865;23;20024;-66
2023/03/13 06:35:10;;;;;;;6.55;2.30;;;;;;;;;;6093644;23;20033;-66
2023/03/13 06:37:37;;;;;;;6.30;2.42;;;;;;;;;;6157206;23;20032;-65
2023/03/13 06:40:12;;;;;;;7.68;2.60;;;;;;;;;;6140378;23;20028;-67
2023/03/13 06:42:41;;;;;;;6.28;2.45;;;;;;;;;;6138355;23;20071;-64
2023/03/13 06:45:10;;;;;;;5.10;2.40;;;;;;;;;;6056699;23;20022;-63
2023/03/13 06:47:50;;;;;;;4.43;1.92;;;;;;;;;;6054805;23;20047;-66
2023/03/13 06:50:17;;;;;;;7.75;2.58;;;;;;;;;;6159474;23;20039;-63
2023/03/13 06:52:43;;;;;;;4.50;2.17;;;;;;;;;;6108558;23;20030;-67
2023/03/13 06:55:12;;;;;;;7.60;2.10;;;;;;;;;;6060723;23;21002;-66
2023/03/13 07:00:11;;;;;;;4.93;2.30;;;;;;;;;;6003068;23;20034;-63
2023/03/13 07:02:42;;;;;;;5.43;2.38;;;;;;;;;;6038620;23;20054;-67
2023/03/13 07:05:13;;;;;;;8.20;2.60;;;;;;;;;;5982733;23;20035;-64
2023/03/13 07:07:42;;;;;;;4.80;2.30;;;;;;;;;;6018448;23;20087;-67
2023/03/13 07:10:12;;;;;;;8.30;2.38;;;;;;;;;;5998306;23;20034;-67
2023/03/13 07:15:13;;;;;;;7.57;2.58;;;;;;;;;;6071073;23;20029;-65
2023/03/13 07:17:42;;;;;;;10.07;2.60;;;;;;;;;;6046581;23;20101;-66
2023/03/13 07:20:10;;;;;;;6.18;2.33;;;;;;;;;;6039997;23;20027;-66
2023/03/13 07:22:53;;;;;;;6.03;2.28;;;;;;;;;;6056330;23;20124;-67
2023/03/13 07:25:21;;;;;;;6.20;1.98;;;;;;;;;;6083539;23;20113;-66
2023/03/13 07:27:51;;;;;;;8.90;2.08;;;;;;;;;;6133619;23;20032;-69
2023/03/13 07:30:32;;;;;;;;;;;;;;;;;;;;;
2023/03/13 07:33:43;;;;;;;8.35;2.08;;;;;;;;;;6126690;23;20048;-66
2023/03/13 07:46:34;;;;;;;4.22;1.48;;;;;;;;;;5016785;27;20522;-65
2023/03/13 07:49:02;;;;;;;6.03;2.17;;;;;;;;;;5015667;28;20118;-65
2023/03/13 07:51:29;;;;;;;6.13;1.98;;;;;;;;;;5031667;28;20159;-63
2023/03/13 07:53:55;;;;;;;4.45;1.98;;;;;;;;;;5019477;28;20139;-65
2023/03/13 07:56:22;;;;;;;6.25;1.67;;;;;;;;;;4976863;28;20090;-66
2023/03/13 07:58:57;;;;;;;4.30;1.88;;;;;;;;;;5039190;28;20387;-62
2023/03/13 08:01:25;;;;;;;7.05;1.98;;;;;;;;;;5036950;28;20063;-64
2023/03/13 08:03:54;;;;;;;4.87;1.73;;;;;;;;;;5007629;28;21061;-62
2023/03/13 08:06:38;;;;;;;10.27;2.10;;;;;;;;;;4956123;28;20084;-65
2023/03/13 08:09:19;;;;;;;5.28;1.95;;;;;;;;;;4981093;28;20120;-65
2023/03/13 08:11:47;;;;;;;8.38;1.80;;;;;;;;;;5005377;28;20054;-61
2023/03/13 08:14:14;;;;;;;4.40;1.63;;;;;;;;;;4975313;28;20057;-67
2023/03/13 08:16:43;;;;;;;5.65;1.77;;;;;;;;;;4918270;28;20161;-67
2023/03/13 08:19:11;;;;;;;8.43;1.88;;;;;;;;;;4977922;28;20058;-65
2023/03/13 08:21:46;;;;;;;7.55;1.77;;;;;;;;;;4968833;28;20054;-67
2023/03/13 08:24:13;;;;;;;3.70;1.77;;;;;;;;;;4977453;28;20089;-65
2023/03/13 08:26:40;;;;;;;5.78;1.98;;;;;;;;;;4937466;28;21001;-65
2023/03/13 08:29:08;;;;;;;5.43;1.83;;;;;;;;;;4989710;28;20132;-64
2023/03/13 08:31:36;;;;;;;2.92;1.35;;;;;;;;;;4952198;28;20405;-68
2023/03/13 08:34:03;;;;;;;6.78;2.00;;;;;;;;;;4918858;28;20063;-65
2023/03/13 08:36:32;;;;;;;4.00;1.77;;;;;;;;;;4952830;28;20093;-65
2023/03/13 08:39:01;;;;;;;8.50;2.03;;;;;;;;;;4938130;28;20073;-68
2023/03/13 08:41:28;;;;;;;;;;;;;;;;;;4964321;28;20054;-64
2023/03/13 08:43:55;;;;;;;4.25;1.77;;;;;;;;;;4937628;28;20161;-67
2023/03/13 08:46:22;;;;;;;5.68;1.50;;;;;;;;;;4973791;28;20141;-67
2023/03/13 08:48:51;;;;;;;6.65;2.22;;;;;;;;;;4981964;28;20814;-67
2023/03/13 08:51:25;;;;;;;6.22;1.70;;;;;;;;;;4900645;28;20070;-66
2023/03/13 08:53:54;;;;;;;4.68;1.45;;;;;;;;;;4895289;28;20051;-65
2023/03/13 09:09:27;;;;;;;5.30;1.63;;;;;;;;;;5939499;22;3781763;-66
2023/03/13 09:11:55;;;;;;;4.85;1.65;;;;;;;;;;6079481;23;20029;-64
2023/03/13 09:14:25;;;;;;;7.00;1.63;;;;;;;;;;6045486;23;20045;-64
2023/03/13 09:16:52;;;;;;;4.03;1.27;;;;;;;;;;5966444;23;20045;-66
2023/03/13 09:22:08;;;;;;;4.10;1.70;;;;;;;;;;5971020;23;20055;-62
2023/03/13 09:42:25;;;;;;;5.20;1.23;;;;;;;;;;5065968;27;20409;-64
2023/03/13 09:45:12;;;;;;;4.15;1.30;;;;;;;;;;4966518;28;20116;-65
2023/03/13 09:47:46;;;;;;;2.65;1.25;;;;;;;;;;4928451;28;20085;-63
2023/03/13 09:55:46;;;;;;;3.42;1.13;;;;;;;;;;4926104;28;20129;-64
2023/03/13 10:03:36;;;;;;;3.05;1.33;;;;;;;;;;4922202;28;20082;-65
2023/03/13 10:08:31;;;;;;;4.40;1.33;;;;;;;;;;4901718;28;20051;-65
2023/03/13 10:11:03;;;;;;;3.03;1.25;;;;;;;;;;4939275;28;21188;-64
2023/03/13 10:13:34;;;;;;;1.60;1.00;;;;;;;;;;5033476;28;20052;-64
2023/03/13 10:16:08;;;;;;;2.70;1.17;;;;;;;;;;4994729;28;20060;-64
2023/03/13 10:18:37;;;;;;;2.05;1.20;;;;;;;;;;5028365;28;20123;-64
2023/03/13 10:21:14;;;;;;;3.47;1.23;;;;;;;;;;5020642;28;20057;-64
2023/03/13 10:23:46;;;;;;;2.45;1.15;;;;;;;;;;4979537;28;20602;-66
2023/03/13 10:26:16;;;;;;;5.05;1.17;;;;;;;;;;4931152;28;20054;-65
2023/03/13 10:28:46;;;;;;;2.75;1.25;;;;;;;;;;4958989;28;20112;-67
2023/03/13 10:31:23;;;;;;;2.78;1.10;;;;;;;;;;5043235;28;20062;-64
2023/03/13 10:34:07;;;;;;;3.83;1.20;;;;;;;;;;5032928;28;20051;-65
2023/03/13 10:36:39;;;;;;;3.67;1.30;;;;;;;;;;5009683;28;20247;-66
2023/03/13 10:39:08;;;;;;;3.58;1.27;;;;;;;;;;4958836;28;20059;-67
2023/03/13 10:44:25;;;;;;;4.20;1.40;;;;;;;;;;4955230;28;20072;-64
2023/03/13 10:46:59;;;;;;;4.15;1.55;;;;;;;;;;4911296;28;20071;-66
2023/03/13 10:49:27;;;;;;;5.90;1.60;;;;;;;;;;4975060;28;20044;-65
2023/03/13 10:52:00;;;;;;;4.13;1.25;;;;;;;;;;4997870;28;20056;-64
2023/03/13 10:54:35;;;;;;;4.60;1.40;;;;;;;;;;4970705;28;20053;-67
2023/03/13 10:57:24;;;;;;;4.82;1.45;;;;;;;;;;4929878;28;20136;-65
2023/03/13 10:59:55;;;;;;;3.13;1.27;;;;;;;;;;4955621;28;20058;-65
2023/03/13 11:02:36;;;;;;;6.43;1.55;;;;;;;;;;4983740;28;20052;-63
2023/03/13 11:05:31;;;;;;;4.63;1.42;;;;;;;;;;5017713;28;20044;-64
2023/03/13 11:07:58;;;;;;;3.45;1.30;;;;;;;;;;4995108;28;20050;-65
2023/03/13 11:10:29;;;;;;;2.90;1.30;;;;;;;;;;5038674;28;20076;-65
2023/03/13 11:13:01;;;;;;;4.53;1.25;;;;;;;;;;4978150;28;20153;-64
2023/03/13 11:15:31;;;;;;;6.80;1.55;;;;;;;;;;5023383;28;20056;-63
2023/03/13 11:18:28;;;;;;;5.40;1.20;;;;;;;;;;5004332;28;20053;-64
2023/03/13 11:23:29;;;;;;;3.72;1.50;;;;;;;;;;4902754;28;20043;-65
2023/03/13 11:26:01;;;;;;;3.70;1.45;;;;;;;;;;4886677;29;20120;-64
2023/03/13 11:28:48;;;;;;;4.63;1.17;;;;;;;;;;4818170;29;20110;-65
2023/03/13 11:40:31;;;;;;;4.43;1.30;;;;;;;;;;4989538;27;20438;-66
2023/03/13 11:43:19;;;;;;;3.20;1.30;;;;;;;;;;4888095;29;20064;-66
2023/03/13 12:02:14;;;;;;;3.70;1.67;;;;;;;;;;6046533;21;6688116;-63
2023/03/13 12:04:53;;;;;;;4.03;1.10;;;;;;;;;;6149579;23;20134;-63
2023/03/13 12:21:46;;;;;;;1.95;1.17;;;;;;;;;;5019135;27;20415;-73
2023/03/13 12:24:25;;;;;;;4.10;1.17;;;;;;;;;;4971297;28;20060;-73
2023/03/13 12:29:31;;;;;;;3.03;1.30;;;;;;;;;;4879945;28;20313;-74
2023/03/13 12:32:03;;;;;;;1.92;1.00;;;;;;;;;;4986675;28;20328;-76
2023/03/13 12:34:39;;;;;;;5.70;1.45;;;;;;;;;;4999864;28;20057;-74
2023/03/13 12:37:21;;;;;;;4.88;1.52;;;;;;;;;;4970755;28;20377;-75
2023/03/13 12:39:52;;;;;;;3.08;1.00;;;;;;;;;;4974465;28;20050;-76
2023/03/13 12:42:36;;;;;;;;;;;;;;;;;;;;;
2023/03/13 12:45:09;;;;;;;3.08;1.17;;;;;;;;;;4998850;28;20062;-74
2023/03/13 12:47:46;;;;;;;3.28;1.10;;;;;;;;;;4982194;28;20157;-75
2023/03/13 12:50:25;;;;;;;4.75;1.20;;;;;;;;;;4963522;28;20045;-75
2023/03/13 12:53:13;;;;;;;4.35;1.10;;;;;;;;;;5004857;28;20091;-76
2023/03/13 12:55:52;;;;;;;2.33;0.93;;;;;;;;;;5020001;28;20060;-76
2023/03/13 12:58:48;;;;;;;4.30;1.10;;;;;;;;;;4951667;28;20041;-76
2023/03/13 13:01:19;;;;;;;3.53;1.20;;;;;;;;;;4953957;28;20061;-76
2023/03/13 13:04:06;;;;;;;1.65;1.00;;;;;;;;;;4960439;28;20085;-76
2023/03/13 14:04:45;;;;;;;3.50;0.93;;;;;;;;;;5018593;27;20815;-66
2023/03/13 14:07:23;;;;;;;3.30;1.20;;;;;;;;;;4930986;28;20129;-62
2023/03/13 14:09:59;;;;;;;6.45;1.10;;;;;;;;;;4966825;28;20064;-65
2023/03/13 14:12:30;;;;;;;4.93;1.27;;;;;;;;;;5006373;28;20071;-63
2023/03/13 14:15:09;;;;;;;1.67;0.82;;;;;;;;;;5009220;28;20224;-64
2023/03/13 14:17:36;;;;;;;;;;;;;;;;;;5038357;28;20060;-63
2023/03/13 14:23:55;;;;;;;6.72;1.30;;;;;;;;;;4997686;28;20095;-65
2023/03/13 14:26:34;;;;;;;7.82;1.50;;;;;;;;;;4976546;28;20068;-64
2023/03/13 14:29:11;;;;;;;6.28;1.33;;;;;;;;;;4904031;28;20162;-63
2023/03/13 14:31:42;;;;;;;4.10;1.42;;;;;;;;;;4939322;28;20230;-66
2023/03/13 14:34:13;;;;;;;5.10;1.05;;;;;;;;;;4943934;28;20144;-64
2023/03/13 14:45:18;;;;;;;;;;;;;;;;;;4951310;28;20055;-63
2023/03/13 14:55:01;;;;;;;7.13;1.38;;;;;;;;;;5018600;27;20435;-66
2023/03/13 14:57:28;;;;;;;4.88;1.05;;;;;;;;;;4924530;28;20057;-66
2023/03/13 15:02:23;;;;;;;9.07;1.30;;;;;;;;;;4891860;28;20050;-63
2023/03/13 15:04:54;;;;;;;7.40;1.40;;;;;;;;;;4942709;28;20081;-67
2023/03/13 15:07:24;;;;;;;6.82;1.60;;;;;;;;;;4948393;28;20061;-64
2023/03/13 15:15:10;;;;;;;10.07;1.67;;;;;;;;;;5073391;27;20525;-63
2023/03/13 15:17:40;;;;;;;6.30;1.30;;;;;;;;;;5045086;28;20047;-65
2023/03/13 15:20:09;;;;;;;7.95;1.63;;;;;;;;;;5018472;27;20052;-64
2023/03/13 15:22:42;;;;;;;7.22;1.70;;;;;;;;;;5015956;28;20079;-66
2023/03/13 15:25:17;;;;;;;7.82;1.75;;;;;;;;;;5047311;27;20160;-65
2023/03/13 15:27:49;;;;;;;5.38;1.30;;;;;;;;;;5071272;27;20060;-66
2023/03/13 15:30:17;;;;;;;8.38;1.50;;;;;;;;;;5054427;28;20136;-65
2023/03/13 15:32:47;;;;;;;4.78;1.15;;;;;;;;;;5055242;28;20056;-66
2023/03/13 15:35:29;;;;;;;9.45;1.60;;;;;;;;;;5045517;28;20192;-64
2023/03/13 15:38:05;;;;;;;8.18;1.85;;;;;;;;;;5048407;28;20117;-65
2023/03/13 15:40:35;;;;;;;6.13;1.73;;;;;;;;;;5036855;28;20068;-64
2023/03/13 15:43:05;;;;;;;9.82;1.48;;;;;;;;;;5051814;28;20089;-64
2023/03/13 15:45:37;;;;;;;8.60;1.23;;;;;;;;;;5059053;28;20055;-66
2023/03/13 15:48:12;;;;;;;6.63;1.45;;;;;;;;;;5036843;28;20040;-63
2023/03/13 15:50:43;;;;;;;5.97;1.60;;;;;;;;;;4998367;28;20079;-64
2023/03/13 15:53:22;;;;;;;4.90;1.27;;;;;;;;;;5064512;28;20052;-63
2023/03/13 15:55:50;;;;;;;7.63;1.50;;;;;;;;;;5051162;28;20080;-65
2023/03/13 15:58:24;;;;;;;8.32;1.30;;;;;;;;;;5051202;28;20136;-63
2023/03/13 16:00:52;;;;;;;4.18;1.27;;;;;;;;;;4991996;28;20083;-64
2023/03/13 16:03:20;;;;;;;9.18;2.10;;;;;;;;;;5021271;28;20057;-63
2023/03/13 16:05:51;;;;;;;9.38;1.45;;;;;;;;;;5063930;28;20092;-63
2023/03/13 16:08:18;;;;;;;6.95;1.75;;;;;;;;;;5042854;28;20146;-63
2023/03/13 16:10:46;;;;;;;6.47;1.33;;;;;;;;;;5037397;28;20079;-65
2023/03/13 16:13:13;;;;;;;6.65;1.60;;;;;;;;;;5057427;28;20049;-64
2023/03/13 16:15:39;;;;;;;7.88;1.73;;;;;;;;;;5056459;28;20060;-65
2023/03/13 16:18:09;;;;;;;14.13;1.92;;;;;;;;;;5052277;28;20079;-66
2023/03/13 16:20:51;;;;;;;5.15;1.30;;;;;;;;;;5004434;28;20060;-64
2023/03/13 16:23:23;;;;;;;9.07;1.58;;;;;;;;;;5070827;28;20057;-63
2023/03/13 16:25:52;;;;;;;7.85;1.55;;;;;;;;;;5062107;28;20055;-65
2023/03/13 16:28:21;;;;;;;6.05;1.48;;;;;;;;;;5057089;28;20135;-64
2023/03/13 16:30:47;;;;;;;6.65;1.75;;;;;;;;;;4989756;28;20159;-65
2023/03/13 16:33:15;;;;;;;11.98;1.65;;;;;;;;;;5048555;28;20118;-63
2023/03/13 16:35:42;;;;;;;7.13;1.50;;;;;;;;;;5046992;28;20079;-63
2023/03/13 16:38:11;;;;;;;5.10;1.52;;;;;;;;;;5048988;28;20061;-64
2023/03/13 16:40:41;;;;;;;8.35;1.98;;;;;;;;;;4995570;28;20059;-66
2023/03/13 16:43:11;;;;;;;9.40;2.08;;;;;;;;;;5010974;28;20063;-66
2023/03/13 16:45:46;;;;;;;7.80;1.98;;;;;;;;;;5022191;28;20048;-65
2023/03/13 16:48:23;;;;;;;8.70;1.30;;;;;;;;;;5020604;28;20056;-65
2023/03/13 16:50:54;;;;;;;9.32;1.80;;;;;;;;;;4994920;28;20058;-64
2023/03/13 16:53:43;;;;;;;10.75;2.00;;;;;;;;;;5022223;28;20145;-63
2023/03/13 16:56:10;;;;;;;;;;;;;;;;;;5046806;28;20163;-63
2023/03/13 16:58:45;;;;;;;5.85;1.42;;;;;;;;;;5033205;27;19931;-65
2023/03/13 17:01:12;;;;;;;6.40;1.80;;;;;;;;;;5016472;28;20155;-62
2023/03/13 17:03:42;;;;;;;13.40;1.70;;;;;;;;;;4982611;28;20069;-64
2023/03/13 17:06:16;;;;;;;14.30;2.28;;;;;;;;;;5035602;28;20052;-66
2023/03/13 17:08:44;;;;;;;8.45;1.60;;;;;;;;;;5009002;28;20063;-64
2023/03/13 17:11:15;;;;;;;9.93;1.63;;;;;;;;;;4986553;28;20077;-66
2023/03/13 17:13:46;;;;;;;9.05;1.63;;;;;;;;;;4997755;28;20057;-63
2023/03/13 17:16:18;;;;;;;14.20;1.90;;;;;;;;;;5005414;28;20053;-64
2023/03/13 17:18:46;;;;;;;9.02;1.77;;;;;;;;;;5048939;28;20059;-66
2023/03/13 17:21:17;;;;;;;13.07;2.30;;;;;;;;;;4989951;28;20064;-66
2023/03/13 17:23:43;;;;;;;10.68;2.00;;;;;;;;;;5035723;27;20048;-63
2023/03/13 17:26:15;;;;;;;11.73;1.90;;;;;;;;;;5038017;28;20072;-63
2023/03/13 17:28:43;;;;;;;7.47;1.73;;;;;;;;;;5030035;27;20060;-65
2023/03/13 17:31:10;;;;;;;7.37;1.93;;;;;;;;;;5032930;28;20042;-63
2023/03/13 17:33:36;;;;;;;6.00;1.70;;;;;;;;;;5030611;28;20076;-66
2023/03/13 17:36:10;;;;;;;8.88;1.77;;;;;;;;;;5010559;28;20057;-64
2023/03/13 17:38:36;;;;;;;13.82;2.20;;;;;;;;;;4957661;28;20125;-64
2023/03/13 17:41:06;;;;;;;12.55;1.95;;;;;;;;;;4928340;28;20172;-64
2023/03/13 17:43:34;;;;;;;9.98;1.70;;;;;;;;;;4941544;28;20058;-65
2023/03/13 17:46:04;;;;;;;6.75;1.83;;;;;;;;;;5005620;28;20144;-64
2023/03/13 17:48:35;;;;;;;11.32;2.45;;;;;;;;;;5033203;28;20132;-66
2023/03/13 17:51:04;;;;;;;8.88;2.30;;;;;;;;;;5002398;28;20176;-65
2023/03/13 17:53:34;;;;;;;13.98;2.88;;;;;;;;;;5042033;28;20254;-65
2023/03/13 17:56:06;;;;;;;13.60;2.38;;;;;;;;;;5049865;28;20133;-64
2023/03/13 17:58:34;;;;;;;11.45;2.15;;;;;;;;;;5034320;28;20059;-64
2023/03/13 18:01:00;;;;;;;9.50;2.45;;;;;;;;;;5026042;28;20114;-66
2023/03/13 18:03:27;;;;;;;13.48;2.10;;;;;;;;;;5058341;28;20131;-65
2023/03/13 18:05:54;;;;;;;14.95;2.40;;;;;;;;;;5045136;28;20096;-66
2023/03/13 18:08:21;;;;;;;7.78;2.25;;;;;;;;;;5031511;28;20109;-65
2023/03/13 18:10:48;;;;;;;10.10;2.10;;;;;;;;;;5021614;28;20052;-64
2023/03/13 18:13:15;;;;;;;6.78;1.48;;;;;;;;;;5044795;28;20065;-65
2023/03/13 18:15:41;;;;;;;12.15;2.25;;;;;;;;;;5039739;28;20057;-69
2023/03/13 18:18:12;;;;;;;9.57;1.45;;;;;;;;;;5064162;28;20055;-63